Seabourn Sojourn — C6YA5 — position and weather

sailwx.info

Track history (hours):
 
Tides and Currents Weather Stations Pressure Air Temp Water Temp Dewpoint Dewpoint Depression Visibility Wind Speed Wind Dir Waves Ship Positions

Seabourn Sojourn

Last reported at 2017-Apr-23 23:00 UTC. Time now 2017-Apr-24 03:35 UTC.
Position N 22°12' E 116°00'.

Length 198 m; draft 6.6 m.

Type: Passenger vessel. MMSI: 311027100.

Wind from 060 at 27 knots

Barometer 1013.0 mb
Air temperature 21.8 ° C
Visibility: greater than 5.4 NM
Dewpoint 18.2 ° C
Water temperature 25.9 ° C

Date/timePositionNaut miles runAvg speedWind from/ knotsBaromVisibWave heightAir tempDewpointWater temp
2017-Apr-23 23:00N 22°12' E 116°00'22 7.4 060 / 271013.0 5.4 21.818.225.9
2017-Apr-23 20:00N 22°12' E 115°36'79 7.7 070 / 231011.0 5.4 22.317.725.6
2017-Apr-23 09:43N 22°18' E 114°11'1 5.9
2017-Apr-23 09:30N 22°17' E 114°10'0 0.3
2017-Apr-23 08:59N 22°18' E 114°10'0 0.0
2017-Apr-23 08:29N 22°18' E 114°10'0 0.0
2017-Apr-23 07:59N 22°18' E 114°10'0 0.0
2017-Apr-23 07:29N 22°18' E 114°10'0 0.0
2017-Apr-23 06:59N 22°18' E 114°10'0 0.0
2017-Apr-23 06:28N 22°18' E 114°10'0 0.0
2017-Apr-23 05:58N 22°18' E 114°10'0 0.0
2017-Apr-23 05:28N 22°18' E 114°10'0 0.0
2017-Apr-23 04:58N 22°18' E 114°10'0 0.0
2017-Apr-23 04:28N 22°18' E 114°10'0 0.0
2017-Apr-23 03:58N 22°18' E 114°10'0 0.0
2017-Apr-23 03:28N 22°18' E 114°10'0 0.0
2017-Apr-23 02:58N 22°18' E 114°10'0 0.0
2017-Apr-23 02:28N 22°18' E 114°10'0 0.0
2017-Apr-23 01:55N 22°18' E 114°10'0 0.0
2017-Apr-23 01:28N 22°18' E 114°10'0 0.0
2017-Apr-23 00:58N 22°18' E 114°10'0 0.0
2017-Apr-23 00:28N 22°18' E 114°10'714.0
2017-Apr-23 00:00N 22°12' E 114°06'7384.9 100 / 61013.0 5.4 25.1
2017-Apr-22 23:58N 22°18' E 114°10'0 0.0
2017-Apr-22 23:28N 22°18' E 114°10'714.0
2017-Apr-22 23:00N 22°12' E 114°06'7378.9 5.4 25.1
2017-Apr-22 22:58N 22°18' E 114°10'0 0.0
2017-Apr-22 22:28N 22°18' E 114°10'0 0.0
2017-Apr-22 21:58N 22°18' E 114°10'0 0.0
2017-Apr-22 21:28N 22°18' E 114°10'0 0.0
2017-Apr-22 20:58N 22°18' E 114°10'0 0.0
2017-Apr-22 20:28N 22°18' E 114°10'0 0.0
2017-Apr-22 19:58N 22°18' E 114°10'0 0.0
2017-Apr-22 19:28N 22°18' E 114°10'0 0.0
2017-Apr-22 18:58N 22°18' E 114°10'0 0.0
2017-Apr-22 18:28N 22°18' E 114°10'0 0.0
2017-Apr-22 17:58N 22°18' E 114°10'0 0.0
2017-Apr-22 17:28N 22°18' E 114°10'0 0.0
2017-Apr-22 16:55N 22°18' E 114°10'0 0.0
2017-Apr-22 16:28N 22°18' E 114°10'0 0.0
2017-Apr-22 15:58N 22°18' E 114°10'0 0.0
2017-Apr-22 15:30N 22°18' E 114°10'0 0.0
2017-Apr-22 15:00N 22°18' E 114°10'0 0.0
2017-Apr-22 14:30N 22°18' E 114°10'0 0.0
2017-Apr-22 13:30N 22°18' E 114°10'0 0.0
2017-Apr-22 13:00N 22°18' E 114°10'0 0.0
2017-Apr-22 12:30N 22°18' E 114°10'0 0.0
2017-Apr-22 12:00N 22°18' E 114°10'0 0.0
2017-Apr-22 11:30N 22°18' E 114°10'0 0.0
2017-Apr-22 11:01N 22°18' E 114°10'0 0.0
2017-Apr-22 10:31N 22°18' E 114°10'0 0.0
2017-Apr-22 09:59N 22°18' E 114°10'0 0.4
2017-Apr-22 09:30N 22°18' E 114°10'159 5.4
2017-Apr-21 04:00N 22°42' E 117°00'102 6.8 220 / 191008.0
2017-Apr-20 13:00N 24°00' E 118°12'20 9.9 230 / 221008.0
2017-Apr-20 10:58N 24°20' E 118°11'612.7
2017-Apr-20 10:31N 24°24' E 118°06'5 9.8
2017-Apr-20 10:01N 24°28' E 118°03'1 0.9
2017-Apr-20 08:26N 24°29' E 118°04'0 0.0
2017-Apr-20 07:56N 24°29' E 118°04'0 0.0
2017-Apr-20 06:32N 24°29' E 118°04'0 0.0
2017-Apr-20 06:20N 24°29' E 118°04'0 0.0
2017-Apr-20 05:50N 24°29' E 118°04'0 0.0
2017-Apr-20 05:20N 24°29' E 118°04'0 0.0
2017-Apr-20 04:58N 24°29' E 118°04'0 0.0
2017-Apr-20 04:22N 24°29' E 118°04'0 0.0
2017-Apr-20 03:58N 24°29' E 118°04'0 0.0
2017-Apr-20 03:28N 24°29' E 118°04'0 0.0
2017-Apr-20 01:10N 24°29' E 118°04'739.1
2017-Apr-20 01:00N 24°24' E 118°00'729.0 240 / 31011.0
2017-Apr-20 00:46N 24°29' E 118°04'0 0.0
2017-Apr-19 23:46N 24°29' E 118°04'0 0.3
2017-Apr-19 23:29N 24°29' E 118°04'3 6.8
2017-Apr-19 23:01N 24°26' E 118°03'611.5
2017-Apr-19 22:30N 24°23' E 118°08'714.4
2017-Apr-19 22:00N 24°17' E 118°13'1113.4
2017-Apr-19 21:09N 24°11' E 118°24'214.8
2017-Apr-19 21:00N 24°12' E 118°26'10913.6
2017-Apr-19 13:00N 25°12' E 120°06'7272.2 020 / 81012.0 0.1 19.218.220.2
2017-Apr-19 12:00N 26°24' E 120°12'66 8.3 320 / 121011.0 0.1 19.618.620.2
2017-Apr-19 04:00N 26°54' E 121°18'24016.0 040 / 81008.0
2017-Apr-18 13:00N 30°30' E 123°18'6 6.0 030 / 161008.0 17.012.318.2
2017-Apr-18 12:00N 30°36' E 123°18'13414.9 350 / 181008.0 16.712.818.0
2017-Apr-18 03:00N 32°48' E 122°48'22114.7 240 / 271001.0
2017-Apr-17 11:56N 35°58' E 120°32'614.7
2017-Apr-17 11:30N 36°00' E 120°25'611.2
2017-Apr-17 11:00N 36°01' E 120°18'1 0.2
2017-Apr-17 04:00N 36°00' E 120°18'5 1.3 090 / 31001.0
2017-Apr-17 00:01N 36°05' E 120°18'0 0.0
2017-Apr-17 00:00N 36°05' E 120°18'3 3.8
2017-Apr-16 23:19N 36°03' E 120°16'410.9
2017-Apr-16 22:59N 36°01' E 120°20'613.3
2017-Apr-16 22:30N 36°00' E 120°28'12112.7
2017-Apr-16 13:00N 36°54' E 122°42'6712.4 140 / 121009.0 5.4 10.0 8.610.0
2017-Apr-16 07:35N 37°54' E 122°03'114.6
2017-Apr-16 07:29N 37°55' E 122°02'714.5
2017-Apr-16 07:00N 37°58' E 121°54'814.4
2017-Apr-16 06:29N 38°02' E 121°46'714.4
2017-Apr-16 06:00N 38°05' E 121°38'814.3
2017-Apr-16 05:25N 38°11' E 121°31'6214.0
2017-Apr-16 01:00N 38°36' E 120°18'1 6.9 350 / 61011.0
2017-Apr-16 00:55N 38°37' E 120°18'6814.5
2017-Apr-15 20:13N 38°47' E 118°52'614.5
2017-Apr-15 19:48N 38°47' E 118°44'614.5
2017-Apr-15 19:23N 38°48' E 118°36'38 4.5
2017-Apr-15 11:00N 38°54' E 117°48'0 0.0 220 / 81006.0
2017-Apr-15 09:00N 38°54' E 117°48'0 0.0 200 / 12 5.4
2017-Apr-15 00:00N 38°54' E 117°48'0 0.0 280 / 91007.0
2017-Apr-14 22:00N 38°54' E 117°48'0 0.0 260 / 12 5.4
2017-Apr-14 04:00N 38°54' E 117°48'   200 / 101004.0
Track history (hours):
 
Tides and Currents Weather Stations Pressure Air Temp Water Temp Dewpoint Dewpoint Depression Visibility Wind Speed Wind Dir Waves Ship Positions

Seabourn Sojourn

Last reported at 2017-Apr-23 23:00 UTC. Time now 2017-Apr-24 03:35 UTC.
Position N 22°12' E 116°00'.

Length 198 m; draft 6.6 m.

Type: Passenger vessel. MMSI: 311027100.

Wind from 060 at 27 knots

Barometer 1013.0 mb
Air temperature 21.8 ° C
Visibility: greater than 5.4 NM
Dewpoint 18.2 ° C
Water temperature 25.9 ° C

Date/timePositionNaut miles runAvg speedWind from/ knotsBaromVisibWave heightAir tempDewpointWater temp
2017-Apr-23 23:00N 22°12' E 116°00'22 7.4 060 / 271013.0 5.4 21.818.225.9
2017-Apr-23 20:00N 22°12' E 115°36'79 7.7 070 / 231011.0 5.4 22.317.725.6
2017-Apr-23 09:43N 22°18' E 114°11'1 5.9
2017-Apr-23 09:30N 22°17' E 114°10'0 0.3
2017-Apr-23 08:59N 22°18' E 114°10'0 0.0
2017-Apr-23 08:29N 22°18' E 114°10'0 0.0
2017-Apr-23 07:59N 22°18' E 114°10'0 0.0
2017-Apr-23 07:29N 22°18' E 114°10'0 0.0
2017-Apr-23 06:59N 22°18' E 114°10'0 0.0
2017-Apr-23 06:28N 22°18' E 114°10'0 0.0
2017-Apr-23 05:58N 22°18' E 114°10'0 0.0
2017-Apr-23 05:28N 22°18' E 114°10'0 0.0
2017-Apr-23 04:58N 22°18' E 114°10'0 0.0
2017-Apr-23 04:28N 22°18' E 114°10'0 0.0
2017-Apr-23 03:58N 22°18' E 114°10'0 0.0
2017-Apr-23 03:28N 22°18' E 114°10'0 0.0
2017-Apr-23 02:58N 22°18' E 114°10'0 0.0
2017-Apr-23 02:28N 22°18' E 114°10'0 0.0
2017-Apr-23 01:55N 22°18' E 114°10'0 0.0
2017-Apr-23 01:28N 22°18' E 114°10'0 0.0
2017-Apr-23 00:58N 22°18' E 114°10'0 0.0
2017-Apr-23 00:28N 22°18' E 114°10'714.0
2017-Apr-23 00:00N 22°12' E 114°06'7384.9 100 / 61013.0 5.4 25.1
2017-Apr-22 23:58N 22°18' E 114°10'0 0.0
2017-Apr-22 23:28N 22°18' E 114°10'714.0
2017-Apr-22 23:00N 22°12' E 114°06'7378.9 5.4 25.1
2017-Apr-22 22:58N 22°18' E 114°10'0 0.0
2017-Apr-22 22:28N 22°18' E 114°10'0 0.0
2017-Apr-22 21:58N 22°18' E 114°10'0 0.0
2017-Apr-22 21:28N 22°18' E 114°10'0 0.0
2017-Apr-22 20:58N 22°18' E 114°10'0 0.0
2017-Apr-22 20:28N 22°18' E 114°10'0 0.0
2017-Apr-22 19:58N 22°18' E 114°10'0 0.0
2017-Apr-22 19:28N 22°18' E 114°10'0 0.0
2017-Apr-22 18:58N 22°18' E 114°10'0 0.0
2017-Apr-22 18:28N 22°18' E 114°10'0 0.0
2017-Apr-22 17:58N 22°18' E 114°10'0 0.0
2017-Apr-22 17:28N 22°18' E 114°10'0 0.0
2017-Apr-22 16:55N 22°18' E 114°10'0 0.0
2017-Apr-22 16:28N 22°18' E 114°10'0 0.0
2017-Apr-22 15:58N 22°18' E 114°10'0 0.0
2017-Apr-22 15:30N 22°18' E 114°10'0 0.0
2017-Apr-22 15:00N 22°18' E 114°10'0 0.0
2017-Apr-22 14:30N 22°18' E 114°10'0 0.0
2017-Apr-22 13:30N 22°18' E 114°10'0 0.0
2017-Apr-22 13:00N 22°18' E 114°10'0 0.0
2017-Apr-22 12:30N 22°18' E 114°10'0 0.0
2017-Apr-22 12:00N 22°18' E 114°10'0 0.0
2017-Apr-22 11:30N 22°18' E 114°10'0 0.0
2017-Apr-22 11:01N 22°18' E 114°10'0 0.0
2017-Apr-22 10:31N 22°18' E 114°10'0 0.0
2017-Apr-22 09:59N 22°18' E 114°10'0 0.4
2017-Apr-22 09:30N 22°18' E 114°10'159 5.4
2017-Apr-21 04:00N 22°42' E 117°00'102 6.8 220 / 191008.0
2017-Apr-20 13:00N 24°00' E 118°12'20 9.9 230 / 221008.0
2017-Apr-20 10:58N 24°20' E 118°11'612.7
2017-Apr-20 10:31N 24°24' E 118°06'5 9.8
2017-Apr-20 10:01N 24°28' E 118°03'1 0.9
2017-Apr-20 08:26N 24°29' E 118°04'0 0.0
2017-Apr-20 07:56N 24°29' E 118°04'0 0.0
2017-Apr-20 06:32N 24°29' E 118°04'0 0.0
2017-Apr-20 06:20N 24°29' E 118°04'0 0.0
2017-Apr-20 05:50N 24°29' E 118°04'0 0.0
2017-Apr-20 05:20N 24°29' E 118°04'0 0.0
2017-Apr-20 04:58N 24°29' E 118°04'0 0.0
2017-Apr-20 04:22N 24°29' E 118°04'0 0.0
2017-Apr-20 03:58N 24°29' E 118°04'0 0.0
2017-Apr-20 03:28N 24°29' E 118°04'0 0.0
2017-Apr-20 01:10N 24°29' E 118°04'739.1
2017-Apr-20 01:00N 24°24' E 118°00'729.0 240 / 31011.0
2017-Apr-20 00:46N 24°29' E 118°04'0 0.0
2017-Apr-19 23:46N 24°29' E 118°04'0 0.3
2017-Apr-19 23:29N 24°29' E 118°04'3 6.8
2017-Apr-19 23:01N 24°26' E 118°03'611.5
2017-Apr-19 22:30N 24°23' E 118°08'714.4
2017-Apr-19 22:00N 24°17' E 118°13'1113.4
2017-Apr-19 21:09N 24°11' E 118°24'214.8
2017-Apr-19 21:00N 24°12' E 118°26'10913.6
2017-Apr-19 13:00N 25°12' E 120°06'7272.2 020 / 81012.0 0.1 19.218.220.2
2017-Apr-19 12:00N 26°24' E 120°12'66 8.3 320 / 121011.0 0.1 19.618.620.2
2017-Apr-19 04:00N 26°54' E 121°18'24016.0 040 / 81008.0
2017-Apr-18 13:00N 30°30' E 123°18'6 6.0 030 / 161008.0 17.012.318.2
2017-Apr-18 12:00N 30°36' E 123°18'13414.9 350 / 181008.0 16.712.818.0
2017-Apr-18 03:00N 32°48' E 122°48'22114.7 240 / 271001.0
2017-Apr-17 11:56N 35°58' E 120°32'614.7
2017-Apr-17 11:30N 36°00' E 120°25'611.2
2017-Apr-17 11:00N 36°01' E 120°18'1 0.2
2017-Apr-17 04:00N 36°00' E 120°18'5 1.3 090 / 31001.0
2017-Apr-17 00:01N 36°05' E 120°18'0 0.0
2017-Apr-17 00:00N 36°05' E 120°18'3 3.8
2017-Apr-16 23:19N 36°03' E 120°16'410.9
2017-Apr-16 22:59N 36°01' E 120°20'613.3
2017-Apr-16 22:30N 36°00' E 120°28'12112.7
2017-Apr-16 13:00N 36°54' E 122°42'6712.4 140 / 121009.0 5.4 10.0 8.610.0
2017-Apr-16 07:35N 37°54' E 122°03'114.6
2017-Apr-16 07:29N 37°55' E 122°02'714.5
2017-Apr-16 07:00N 37°58' E 121°54'814.4
2017-Apr-16 06:29N 38°02' E 121°46'714.4
2017-Apr-16 06:00N 38°05' E 121°38'814.3
2017-Apr-16 05:25N 38°11' E 121°31'6214.0
2017-Apr-16 01:00N 38°36' E 120°18'1 6.9 350 / 61011.0
2017-Apr-16 00:55N 38°37' E 120°18'6814.5
2017-Apr-15 20:13N 38°47' E 118°52'614.5
2017-Apr-15 19:48N 38°47' E 118°44'614.5
2017-Apr-15 19:23N 38°48' E 118°36'38 4.5
2017-Apr-15 11:00N 38°54' E 117°48'0 0.0 220 / 81006.0
2017-Apr-15 09:00N 38°54' E 117°48'0 0.0 200 / 12 5.4
2017-Apr-15 00:00N 38°54' E 117°48'0 0.0 280 / 91007.0
2017-Apr-14 22:00N 38°54' E 117°48'0 0.0 260 / 12 5.4
2017-Apr-14 04:00N 38°54' E 117°48'   200 / 101004.0

Dump ship's entire track history